Ana Sayfa
METAR-TAF:

METAR-TAF

Havaalanları :

Borlänge, İsveç

Enlem: 60-26N, Boylam: 015-31E, yükseklik: 145 m

Güncel hava durumu gözlemi

Rapor saat 04:50 UTC de 18 dakika önce yapıldı.
Rüzgar batıdan 6 kt
Sıcaklık -4°C
Nem 93%
Basınç 997 hPa
Görüş mesafesi 10 km veya daha fazla

METAR: ESSD 290450Z AUTO 27006KT 9999 NCD M04/M05 Q0997

Saat: 06:08 (05:08 UTC)

Tahmin

Rapor saat 11:30 UTC de 17 saat ve 38 dakika önce yapıldı.
Ayın 28'si saat 12 UTC'den ayın 28'si saat 16 UTC'ye kadar geçerli Tahmin
Rüzgar değişken yönden 2 kt
Görüş mesafesi 10 km veya daha fazla
1500 m altında bulut yok ve kümülonimbus yok

TAF: ESSD 281130Z 2812/2816 VRB02KT CAVOK

4.000'den fazla havaalanı için hava durumu gözlemleri ve tahminleri (METAR ve TAF raporları).

Kullanılabilir istasyonlar harita üzerinde sarı ve kırmızı noktalarla gösterilir.

İstasyonun adını görmek için fareyi noktanın üzerinde gezdirin.

Sonrasında hava gözlem ve tahminlerini görmek için tıklayın.

Haritayı değiştirmek için: yaklaştırmak için siyah artı işaretli yeşil düğmeye ve uzaklaştırmak için de eksi işaretli düğmeye hızla tıklayın; bitişik haritalar için yeşil okları kullanın.


METAR-TAF: